Strona główna
METAR-TAF:

METAR-TAF

Lotnisko :

Port lotniczy Rabat-Sala

Rabat, Maroko

Szerokość geograficzna: 34-03N, Długość geograficzna: 006-46W, wysokość: 84 m

Aktualna obserwacja pogody

Raport powstał 38 minut temu, godzina 21:00 UTC
Wiatr 7 kt od zachód
Temperatura 20°C
Wilgotność 73%
Ciśnienie 1016 hPa
Widzialność: 8000 m
Rozproszone chmury na wysokości 1600 ft

METAR: GMME 042100Z 27007KT 8000 SCT016 20/15 Q1016 NOSIG

czas: 22:38 (21:38 UTC)

Prognoza

Raport powstał 4 godziny i 38 minut temu, godzina 17:00 UTC
Prognoza ważna od 04 godzina 18 UTC do 05 godzina 24 UTC
Wiatr 13 kt od zachód
Widzialność: 8000 m
Rozproszone chmury na wysokości 1500 ft
Rozproszone chmury na wysokości 8000 ft
Stopniowe zmiany
od 05 godzina 08 UTC do 05 godzina 10 UTC
Wiatr 10 kt od północny zachód

TAF: GMME 041700Z 0418/0524 26013KT 8000 SCT015 SCT080 BECMG 0508/0510 32010KT

Obserwacja i prognoza pogody dla ponad 4000 lotnisk (raport METAR i TAF).

Dostępne stacje oznaczono żółtymi i czerwonymi punktami na mapie.

Najedź kursorem aby zobaczyć nazwę stacji.

Kliknij aby zobaczyć obserwacje i prognozy pogody.

Aby zmienić mapę: kliknij na zielony przycisk z czarnym krzyżykiem, aby powiększyć; na zielony przycisk z myślnikiem, aby pomniejszyć; na zielone strzałki, aby przejść do map sąsiednich.


METAR-TAF: